sensor_id;sensor_type;location;lat;lon;timestamp;temperature;humidity
13164;DHT22;6647;53.688;10.746;2022-09-30T00:00:00;10.40;1.00
13164;DHT22;6647;53.688;10.746;2022-09-30T00:01:23;10.30;1.00
13164;DHT22;6647;53.688;10.746;2022-09-30T00:02:45;10.30;1.00
13164;DHT22;6647;53.688;10.746;2022-09-30T00:04:09;10.40;1.00
13164;DHT22;6647;53.688;10.746;2022-09-30T00:05:32;10.40;1.00
13164;DHT22;6647;53.688;10.746;2022-09-30T00:06:53;10.30;1.00
13164;DHT22;6647;53.688;10.746;2022-09-30T00:08:14;10.30;1.00
13164;DHT22;6647;53.688;10.746;2022-09-30T00:09:35;10.30;1.00
13164;DHT22;6647;53.688;10.746;2022-09-30T00:11:22;10.30;1.00
13164;DHT22;6647;53.688;10.746;2022-09-30T00:12:45;10.30;1.00
13164;DHT22;6647;53.688;10.746;2022-09-30T00:14:08;10.30;1.00
13164;DHT22;6647;53.688;10.746;2022-09-30T00:15:32;10.20;1.00
13164;DHT22;6647;53.688;10.746;2022-09-30T00:16:52;10.20;1.00
13164;DHT22;6647;53.688;10.746;2022-09-30T00:18:13;10.20;1.00
13164;DHT22;6647;53.688;10.746;2022-09-30T00:19:34;10.20;1.00
13164;DHT22;6647;53.688;10.746;2022-09-30T00:20:55;10.10;1.00
13164;DHT22;6647;53.688;10.746;2022-09-30T00:22:16;10.20;1.00
13164;DHT22;6647;53.688;10.746;2022-09-30T00:23:38;10.10;1.00
13164;DHT22;6647;53.688;10.746;2022-09-30T00:24:59;10.10;1.00
13164;DHT22;6647;53.688;10.746;2022-09-30T00:26:22;10.10;1.00
13164;DHT22;6647;53.688;10.746;2022-09-30T00:27:43;10.10;1.00
13164;DHT22;6647;53.688;10.746;2022-09-30T00:29:04;10.10;1.00
13164;DHT22;6647;53.688;10.746;2022-09-30T00:30:25;10.10;1.00
13164;DHT22;6647;53.688;10.746;2022-09-30T00:31:47;10.10;1.00
13164;DHT22;6647;53.688;10.746;2022-09-30T00:33:09;10.00;1.00
13164;DHT22;6647;53.688;10.746;2022-09-30T00:34:29;10.00;1.00
13164;DHT22;6647;53.688;10.746;2022-09-30T00:35:50;10.00;1.00
13164;DHT22;6647;53.688;10.746;2022-09-30T00:37:11;10.00;1.00
13164;DHT22;6647;53.688;10.746;2022-09-30T00:38:34;10.00;1.00
13164;DHT22;6647;53.688;10.746;2022-09-30T00:39:55;9.90;1.00
13164;DHT22;6647;53.688;10.746;2022-09-30T00:41:16;9.90;1.00
13164;DHT22;6647;53.688;10.746;2022-09-30T00:42:40;9.90;1.00
13164;DHT22;6647;53.688;10.746;2022-09-30T00:44:01;9.90;1.00
13164;DHT22;6647;53.688;10.746;2022-09-30T00:45:22;9.90;1.00
13164;DHT22;6647;53.688;10.746;2022-09-30T00:46:44;9.90;1.00
13164;DHT22;6647;53.688;10.746;2022-09-30T00:48:16;9.90;1.00
13164;DHT22;6647;53.688;10.746;2022-09-30T00:49:39;9.90;1.00
13164;DHT22;6647;53.688;10.746;2022-09-30T00:51:01;9.90;1.00
13164;DHT22;6647;53.688;10.746;2022-09-30T00:52:23;9.90;1.00
13164;DHT22;6647;53.688;10.746;2022-09-30T00:53:53;9.90;1.00
13164;DHT22;6647;53.688;10.746;2022-09-30T00:55:39;9.90;1.00
13164;DHT22;6647;53.688;10.746;2022-09-30T00:57:02;9.80;1.00
13164;DHT22;6647;53.688;10.746;2022-09-30T00:58:36;9.80;1.00
13164;DHT22;6647;53.688;10.746;2022-09-30T00:59:59;9.80;1.00
13164;DHT22;6647;53.688;10.746;2022-09-30T01:01:22;9.80;1.00
13164;DHT22;6647;53.688;10.746;2022-09-30T01:02:45;9.80;1.00
13164;DHT22;6647;53.688;10.746;2022-09-30T01:04:15;9.80;1.00
13164;DHT22;6647;53.688;10.746;2022-09-30T01:05:37;9.80;1.00
13164;DHT22;6647;53.688;10.746;2022-09-30T01:07:03;9.70;1.00
13164;DHT22;6647;53.688;10.746;2022-09-30T01:08:25;9.70;1.00
13164;DHT22;6647;53.688;10.746;2022-09-30T01:09:47;9.70;1.00
13164;DHT22;6647;53.688;10.746;2022-09-30T01:11:09;9.70;1.00
13164;DHT22;6647;53.688;10.746;2022-09-30T01:12:30;9.70;1.00
13164;DHT22;6647;53.688;10.746;2022-09-30T01:13:55;9.70;1.00
13164;DHT22;6647;53.688;10.746;2022-09-30T01:15:18;9.70;1.00
13164;DHT22;6647;53.688;10.746;2022-09-30T01:17:04;9.70;1.00
13164;DHT22;6647;53.688;10.746;2022-09-30T01:25:12;9.60;1.00
13164;DHT22;6647;53.688;10.746;2022-09-30T01:30:11;9.50;1.00
13164;DHT22;6647;53.688;10.746;2022-09-30T01:31:55;9.50;1.00
13164;DHT22;6647;53.688;10.746;2022-09-30T01:33:31;9.50;1.00
13164;DHT22;6647;53.688;10.746;2022-09-30T01:35:16;9.50;1.00
13164;DHT22;6647;53.688;10.746;2022-09-30T01:36:55;9.50;1.00
13164;DHT22;6647;53.688;10.746;2022-09-30T01:38:34;9.50;1.00
13164;DHT22;6647;53.688;10.746;2022-09-30T01:40:21;9.50;1.00
13164;DHT22;6647;53.688;10.746;2022-09-30T01:41:56;9.50;1.00
13164;DHT22;6647;53.688;10.746;2022-09-30T01:43:37;9.50;1.00
13164;DHT22;6647;53.688;10.746;2022-09-30T01:45:14;9.50;1.00
13164;DHT22;6647;53.688;10.746;2022-09-30T01:46:45;9.50;1.00
13164;DHT22;6647;53.688;10.746;2022-09-30T01:48:24;9.50;1.00
13164;DHT22;6647;53.688;10.746;2022-09-30T01:49:57;9.50;1.00
13164;DHT22;6647;53.688;10.746;2022-09-30T01:51:40;9.50;1.00
13164;DHT22;6647;53.688;10.746;2022-09-30T01:53:10;9.50;1.00
13164;DHT22;6647;53.688;10.746;2022-09-30T01:54:55;9.50;1.00
13164;DHT22;6647;53.688;10.746;2022-09-30T01:58:32;9.40;1.00
13164;DHT22;6647;53.688;10.746;2022-09-30T02:00:05;9.40;1.00
13164;DHT22;6647;53.688;10.746;2022-09-30T02:01:42;9.40;1.00
13164;DHT22;6647;53.688;10.746;2022-09-30T02:03:12;9.40;1.00
13164;DHT22;6647;53.688;10.746;2022-09-30T02:04:43;9.30;1.00
13164;DHT22;6647;53.688;10.746;2022-09-30T02:06:09;9.30;1.00
13164;DHT22;6647;53.688;10.746;2022-09-30T02:07:41;9.30;1.00
13164;DHT22;6647;53.688;10.746;2022-09-30T02:09:10;9.30;1.00
13164;DHT22;6647;53.688;10.746;2022-09-30T02:10:37;9.30;1.00
13164;DHT22;6647;53.688;10.746;2022-09-30T02:12:03;9.30;1.00
13164;DHT22;6647;53.688;10.746;2022-09-30T02:13:34;9.30;1.00
13164;DHT22;6647;53.688;10.746;2022-09-30T02:15:09;9.30;1.00
13164;DHT22;6647;53.688;10.746;2022-09-30T02:16:37;9.30;1.00
13164;DHT22;6647;53.688;10.746;2022-09-30T02:18:07;9.30;1.00
13164;DHT22;6647;53.688;10.746;2022-09-30T02:19:45;9.20;1.00
13164;DHT22;6647;53.688;10.746;2022-09-30T02:21:08;9.30;1.00
13164;DHT22;6647;53.688;10.746;2022-09-30T02:22:42;9.30;1.00
13164;DHT22;6647;53.688;10.746;2022-09-30T02:24:09;9.30;1.00
13164;DHT22;6647;53.688;10.746;2022-09-30T02:26:01;9.30;1.00
13164;DHT22;6647;53.688;10.746;2022-09-30T02:27:36;9.30;1.00
13164;DHT22;6647;53.688;10.746;2022-09-30T02:29:09;9.30;1.00
13164;DHT22;6647;53.688;10.746;2022-09-30T02:30:35;9.20;1.00
13164;DHT22;6647;53.688;10.746;2022-09-30T02:32:01;9.20;1.00
13164;DHT22;6647;53.688;10.746;2022-09-30T02:33:33;9.20;1.00
13164;DHT22;6647;53.688;10.746;2022-09-30T02:34:59;9.20;1.00
13164;DHT22;6647;53.688;10.746;2022-09-30T02:36:29;9.10;1.00
13164;DHT22;6647;53.688;10.746;2022-09-30T02:37:54;9.10;1.00
13164;DHT22;6647;53.688;10.746;2022-09-30T02:41:20;9.10;1.00
13164;DHT22;6647;53.688;10.746;2022-09-30T02:42:44;9.10;1.00
13164;DHT22;6647;53.688;10.746;2022-09-30T02:44:05;9.10;1.00
13164;DHT22;6647;53.688;10.746;2022-09-30T02:45:27;9.10;1.00
13164;DHT22;6647;53.688;10.746;2022-09-30T02:46:59;9.10;1.00
13164;DHT22;6647;53.688;10.746;2022-09-30T02:48:50;9.10;1.00
13164;DHT22;6647;53.688;10.746;2022-09-30T02:50:17;9.10;1.00
13164;DHT22;6647;53.688;10.746;2022-09-30T02:52:01;9.10;1.00
13164;DHT22;6647;53.688;10.746;2022-09-30T02:53:35;9.10;1.00
13164;DHT22;6647;53.688;10.746;2022-09-30T02:58:21;9.10;1.00
13164;DHT22;6647;53.688;10.746;2022-09-30T02:59:47;9.10;1.00
13164;DHT22;6647;53.688;10.746;2022-09-30T03:01:10;9.00;1.00
13164;DHT22;6647;53.688;10.746;2022-09-30T03:02:35;9.10;1.00
13164;DHT22;6647;53.688;10.746;2022-09-30T03:04:04;9.00;1.00
13164;DHT22;6647;53.688;10.746;2022-09-30T03:05:27;9.00;1.00
13164;DHT22;6647;53.688;10.746;2022-09-30T03:06:49;9.00;1.00
13164;DHT22;6647;53.688;10.746;2022-09-30T03:08:10;9.00;1.00
13164;DHT22;6647;53.688;10.746;2022-09-30T03:09:33;9.00;1.00
13164;DHT22;6647;53.688;10.746;2022-09-30T03:10:55;9.00;1.00
13164;DHT22;6647;53.688;10.746;2022-09-30T03:12:41;9.00;1.00
13164;DHT22;6647;53.688;10.746;2022-09-30T03:14:36;9.00;1.00
13164;DHT22;6647;53.688;10.746;2022-09-30T03:17:49;8.90;1.00
13164;DHT22;6647;53.688;10.746;2022-09-30T03:28:34;8.90;1.00
13164;DHT22;6647;53.688;10.746;2022-09-30T03:29:59;8.90;1.00
13164;DHT22;6647;53.688;10.746;2022-09-30T03:35:29;8.90;1.00
13164;DHT22;6647;53.688;10.746;2022-09-30T03:37:10;8.90;1.00
13164;DHT22;6647;53.688;10.746;2022-09-30T03:38:52;8.90;1.00
13164;DHT22;6647;53.688;10.746;2022-09-30T03:41:58;8.90;1.00
13164;DHT22;6647;53.688;10.746;2022-09-30T03:43:28;8.90;1.00
13164;DHT22;6647;53.688;10.746;2022-09-30T03:45:07;8.90;1.00
13164;DHT22;6647;53.688;10.746;2022-09-30T03:48:02;8.90;1.00
13164;DHT22;6647;53.688;10.746;2022-09-30T03:49:27;8.90;1.00
13164;DHT22;6647;53.688;10.746;2022-09-30T03:50:50;8.90;1.00
13164;DHT22;6647;53.688;10.746;2022-09-30T03:52:12;8.90;1.00
13164;DHT22;6647;53.688;10.746;2022-09-30T03:53:39;8.90;1.00
13164;DHT22;6647;53.688;10.746;2022-09-30T03:55:02;8.90;1.00
13164;DHT22;6647;53.688;10.746;2022-09-30T03:56:29;8.90;1.00
13164;DHT22;6647;53.688;10.746;2022-09-30T03:57:51;8.90;1.00
13164;DHT22;6647;53.688;10.746;2022-09-30T03:59:26;9.00;1.00
13164;DHT22;6647;53.688;10.746;2022-09-30T04:00:50;9.00;1.00
13164;DHT22;6647;53.688;10.746;2022-09-30T04:02:11;8.90;1.00
13164;DHT22;6647;53.688;10.746;2022-09-30T04:03:32;9.00;1.00
13164;DHT22;6647;53.688;10.746;2022-09-30T04:04:55;9.00;1.00
13164;DHT22;6647;53.688;10.746;2022-09-30T04:06:16;9.00;1.00
13164;DHT22;6647;53.688;10.746;2022-09-30T04:07:37;9.00;1.00
13164;DHT22;6647;53.688;10.746;2022-09-30T04:08:58;9.00;1.00
13164;DHT22;6647;53.688;10.746;2022-09-30T04:10:19;9.00;1.00
13164;DHT22;6647;53.688;10.746;2022-09-30T04:11:40;9.00;1.00
13164;DHT22;6647;53.688;10.746;2022-09-30T04:13:01;9.00;1.00
13164;DHT22;6647;53.688;10.746;2022-09-30T04:14:22;9.00;1.00
13164;DHT22;6647;53.688;10.746;2022-09-30T04:15:43;9.00;1.00
13164;DHT22;6647;53.688;10.746;2022-09-30T04:17:04;9.00;1.00
13164;DHT22;6647;53.688;10.746;2022-09-30T04:18:25;9.00;1.00
13164;DHT22;6647;53.688;10.746;2022-09-30T04:19:46;9.00;1.00
13164;DHT22;6647;53.688;10.746;2022-09-30T04:21:09;9.00;1.00
13164;DHT22;6647;53.688;10.746;2022-09-30T04:22:30;9.00;1.00
13164;DHT22;6647;53.688;10.746;2022-09-30T04:23:50;9.00;1.00
13164;DHT22;6647;53.688;10.746;2022-09-30T04:25:12;9.00;1.00
13164;DHT22;6647;53.688;10.746;2022-09-30T04:26:32;9.00;1.00
13164;DHT22;6647;53.688;10.746;2022-09-30T04:27:54;9.00;1.00
13164;DHT22;6647;53.688;10.746;2022-09-30T04:29:15;9.10;1.00
13164;DHT22;6647;53.688;10.746;2022-09-30T04:30:37;9.10;1.00
13164;DHT22;6647;53.688;10.746;2022-09-30T04:31:58;9.10;1.00
13164;DHT22;6647;53.688;10.746;2022-09-30T04:33:18;9.10;1.00
13164;DHT22;6647;53.688;10.746;2022-09-30T04:34:39;9.10;1.00
13164;DHT22;6647;53.688;10.746;2022-09-30T04:36:01;9.10;1.00
13164;DHT22;6647;53.688;10.746;2022-09-30T04:37:21;9.10;1.00
13164;DHT22;6647;53.688;10.746;2022-09-30T04:38:43;9.10;1.00
13164;DHT22;6647;53.688;10.746;2022-09-30T04:40:04;9.10;1.00
13164;DHT22;6647;53.688;10.746;2022-09-30T04:41:25;9.10;1.00
13164;DHT22;6647;53.688;10.746;2022-09-30T04:42:46;9.20;1.00
13164;DHT22;6647;53.688;10.746;2022-09-30T04:44:07;9.20;1.00
13164;DHT22;6647;53.688;10.746;2022-09-30T04:45:28;9.20;1.00
13164;DHT22;6647;53.688;10.746;2022-09-30T04:46:49;9.20;1.00
13164;DHT22;6647;53.688;10.746;2022-09-30T04:48:13;9.20;1.00
13164;DHT22;6647;53.688;10.746;2022-09-30T04:49:35;9.20;1.00
13164;DHT22;6647;53.688;10.746;2022-09-30T04:50:57;9.20;1.00
13164;DHT22;6647;53.688;10.746;2022-09-30T04:52:19;9.20;1.00
13164;DHT22;6647;53.688;10.746;2022-09-30T04:53:41;9.20;1.00
13164;DHT22;6647;53.688;10.746;2022-09-30T04:55:02;9.20;1.00
13164;DHT22;6647;53.688;10.746;2022-09-30T04:56:23;9.20;1.00
13164;DHT22;6647;53.688;10.746;2022-09-30T04:57:45;9.20;1.00
13164;DHT22;6647;53.688;10.746;2022-09-30T04:59:06;9.20;1.00
13164;DHT22;6647;53.688;10.746;2022-09-30T05:00:27;9.20;1.00
13164;DHT22;6647;53.688;10.746;2022-09-30T05:01:48;9.20;1.00
13164;DHT22;6647;53.688;10.746;2022-09-30T05:03:09;9.20;1.00
13164;DHT22;6647;53.688;10.746;2022-09-30T05:04:30;9.30;1.00
13164;DHT22;6647;53.688;10.746;2022-09-30T05:05:53;9.30;1.00
13164;DHT22;6647;53.688;10.746;2022-09-30T05:07:13;9.20;1.00
13164;DHT22;6647;53.688;10.746;2022-09-30T05:08:35;9.20;1.00
13164;DHT22;6647;53.688;10.746;2022-09-30T05:09:56;9.30;1.00
13164;DHT22;6647;53.688;10.746;2022-09-30T05:11:18;9.30;1.00
13164;DHT22;6647;53.688;10.746;2022-09-30T05:12:41;9.30;1.00
13164;DHT22;6647;53.688;10.746;2022-09-30T05:14:05;9.30;1.00
13164;DHT22;6647;53.688;10.746;2022-09-30T05:15:28;9.30;1.00
13164;DHT22;6647;53.688;10.746;2022-09-30T05:16:49;9.30;1.00
13164;DHT22;6647;53.688;10.746;2022-09-30T05:18:10;9.30;1.00
13164;DHT22;6647;53.688;10.746;2022-09-30T05:19:32;9.30;1.00
13164;DHT22;6647;53.688;10.746;2022-09-30T05:20:54;9.30;1.00
13164;DHT22;6647;53.688;10.746;2022-09-30T05:22:16;9.30;1.00
13164;DHT22;6647;53.688;10.746;2022-09-30T05:23:37;9.30;1.00
13164;DHT22;6647;53.688;10.746;2022-09-30T05:24:58;9.30;1.00
13164;DHT22;6647;53.688;10.746;2022-09-30T05:26:19;9.30;1.00
13164;DHT22;6647;53.688;10.746;2022-09-30T05:27:40;9.30;1.00
13164;DHT22;6647;53.688;10.746;2022-09-30T05:29:01;9.30;1.00
13164;DHT22;6647;53.688;10.746;2022-09-30T05:30:22;9.30;1.00
13164;DHT22;6647;53.688;10.746;2022-09-30T05:31:42;9.30;1.00
13164;DHT22;6647;53.688;10.746;2022-09-30T05:33:03;9.30;1.00
13164;DHT22;6647;53.688;10.746;2022-09-30T05:34:24;9.30;1.00
13164;DHT22;6647;53.688;10.746;2022-09-30T05:35:45;9.30;1.00
13164;DHT22;6647;53.688;10.746;2022-09-30T05:37:07;9.30;1.00
13164;DHT22;6647;53.688;10.746;2022-09-30T05:38:31;9.30;1.00
13164;DHT22;6647;53.688;10.746;2022-09-30T05:39:53;9.30;1.00
13164;DHT22;6647;53.688;10.746;2022-09-30T05:41:14;9.30;1.00
13164;DHT22;6647;53.688;10.746;2022-09-30T05:42:35;9.30;1.00
13164;DHT22;6647;53.688;10.746;2022-09-30T05:43:56;9.30;1.00
13164;DHT22;6647;53.688;10.746;2022-09-30T05:45:18;9.30;1.00
13164;DHT22;6647;53.688;10.746;2022-09-30T05:46:39;9.20;1.00
13164;DHT22;6647;53.688;10.746;2022-09-30T05:48:00;9.30;1.00
13164;DHT22;6647;53.688;10.746;2022-09-30T05:49:21;9.30;1.00
13164;DHT22;6647;53.688;10.746;2022-09-30T05:50:42;9.30;1.00
13164;DHT22;6647;53.688;10.746;2022-09-30T05:52:03;9.30;1.00
13164;DHT22;6647;53.688;10.746;2022-09-30T05:53:24;9.30;1.00
13164;DHT22;6647;53.688;10.746;2022-09-30T05:54:45;9.30;1.00
13164;DHT22;6647;53.688;10.746;2022-09-30T05:56:08;9.30;1.00
13164;DHT22;6647;53.688;10.746;2022-09-30T05:57:29;9.30;1.00
13164;DHT22;6647;53.688;10.746;2022-09-30T05:58:50;9.30;1.00
13164;DHT22;6647;53.688;10.746;2022-09-30T06:00:11;9.30;1.00
13164;DHT22;6647;53.688;10.746;2022-09-30T06:01:32;9.30;1.00
13164;DHT22;6647;53.688;10.746;2022-09-30T06:02:53;9.30;1.00
13164;DHT22;6647;53.688;10.746;2022-09-30T06:04:14;9.30;1.00
13164;DHT22;6647;53.688;10.746;2022-09-30T06:05:36;9.30;1.00
13164;DHT22;6647;53.688;10.746;2022-09-30T06:06:57;9.30;1.00
13164;DHT22;6647;53.688;10.746;2022-09-30T06:08:18;9.30;1.00
13164;DHT22;6647;53.688;10.746;2022-09-30T06:09:39;9.30;1.00
13164;DHT22;6647;53.688;10.746;2022-09-30T06:11:00;9.30;1.00
13164;DHT22;6647;53.688;10.746;2022-09-30T06:12:21;9.30;1.00
13164;DHT22;6647;53.688;10.746;2022-09-30T06:13:43;9.30;1.00
13164;DHT22;6647;53.688;10.746;2022-09-30T06:15:05;9.30;1.00
13164;DHT22;6647;53.688;10.746;2022-09-30T06:16:26;9.30;1.00
13164;DHT22;6647;53.688;10.746;2022-09-30T06:17:53;9.30;1.00
13164;DHT22;6647;53.688;10.746;2022-09-30T06:19:14;9.30;1.00
13164;DHT22;6647;53.688;10.746;2022-09-30T06:20:35;9.30;1.00
13164;DHT22;6647;53.688;10.746;2022-09-30T06:21:57;9.30;1.00
13164;DHT22;6647;53.688;10.746;2022-09-30T06:23:18;9.30;1.00
13164;DHT22;6647;53.688;10.746;2022-09-30T06:24:39;9.30;1.00
13164;DHT22;6647;53.688;10.746;2022-09-30T06:26:03;9.30;1.00
13164;DHT22;6647;53.688;10.746;2022-09-30T06:27:24;9.30;1.00
13164;DHT22;6647;53.688;10.746;2022-09-30T06:28:45;9.30;1.00
13164;DHT22;6647;53.688;10.746;2022-09-30T06:30:06;9.40;1.00
13164;DHT22;6647;53.688;10.746;2022-09-30T06:31:27;9.30;1.00
13164;DHT22;6647;53.688;10.746;2022-09-30T06:32:50;9.30;1.00
13164;DHT22;6647;53.688;10.746;2022-09-30T06:34:11;9.30;1.00
13164;DHT22;6647;53.688;10.746;2022-09-30T06:35:32;9.30;1.00
13164;DHT22;6647;53.688;10.746;2022-09-30T06:36:53;9.40;1.00
13164;DHT22;6647;53.688;10.746;2022-09-30T06:38:14;9.40;1.00
13164;DHT22;6647;53.688;10.746;2022-09-30T06:39:35;9.40;1.00
13164;DHT22;6647;53.688;10.746;2022-09-30T06:40:58;9.40;1.00
13164;DHT22;6647;53.688;10.746;2022-09-30T06:42:19;9.40;1.00
13164;DHT22;6647;53.688;10.746;2022-09-30T06:43:42;9.50;1.00
13164;DHT22;6647;53.688;10.746;2022-09-30T06:45:04;9.50;1.00
13164;DHT22;6647;53.688;10.746;2022-09-30T06:46:25;9.50;1.00
13164;DHT22;6647;53.688;10.746;2022-09-30T06:47:45;9.50;1.00
13164;DHT22;6647;53.688;10.746;2022-09-30T06:49:06;9.50;1.00
13164;DHT22;6647;53.688;10.746;2022-09-30T06:50:30;9.50;1.00
13164;DHT22;6647;53.688;10.746;2022-09-30T06:51:51;9.50;1.00
13164;DHT22;6647;53.688;10.746;2022-09-30T06:53:12;9.50;1.00
13164;DHT22;6647;53.688;10.746;2022-09-30T06:54:33;9.50;1.00
13164;DHT22;6647;53.688;10.746;2022-09-30T06:55:57;9.50;1.00
13164;DHT22;6647;53.688;10.746;2022-09-30T06:57:18;9.60;1.00
13164;DHT22;6647;53.688;10.746;2022-09-30T06:58:42;9.60;1.00
13164;DHT22;6647;53.688;10.746;2022-09-30T07:00:05;9.60;1.00
13164;DHT22;6647;53.688;10.746;2022-09-30T07:01:26;9.60;1.00
13164;DHT22;6647;53.688;10.746;2022-09-30T07:02:48;9.60;1.00
13164;DHT22;6647;53.688;10.746;2022-09-30T07:04:13;9.60;1.00
13164;DHT22;6647;53.688;10.746;2022-09-30T07:05:35;9.60;1.00
13164;DHT22;6647;53.688;10.746;2022-09-30T07:06:56;9.60;1.00
13164;DHT22;6647;53.688;10.746;2022-09-30T07:08:17;9.70;1.00
13164;DHT22;6647;53.688;10.746;2022-09-30T07:09:38;9.70;1.00
13164;DHT22;6647;53.688;10.746;2022-09-30T07:11:05;9.70;1.00
13164;DHT22;6647;53.688;10.746;2022-09-30T07:12:28;9.70;1.00
13164;DHT22;6647;53.688;10.746;2022-09-30T07:13:49;9.70;1.00
13164;DHT22;6647;53.688;10.746;2022-09-30T07:15:10;9.70;1.00
13164;DHT22;6647;53.688;10.746;2022-09-30T07:16:32;9.70;1.00
13164;DHT22;6647;53.688;10.746;2022-09-30T07:17:55;9.70;1.00
13164;DHT22;6647;53.688;10.746;2022-09-30T07:19:17;9.70;1.00
13164;DHT22;6647;53.688;10.746;2022-09-30T07:20:50;9.80;1.00
13164;DHT22;6647;53.688;10.746;2022-09-30T07:22:11;9.80;1.00
13164;DHT22;6647;53.688;10.746;2022-09-30T07:23:48;9.80;1.00
13164;DHT22;6647;53.688;10.746;2022-09-30T07:25:09;9.80;1.00
13164;DHT22;6647;53.688;10.746;2022-09-30T07:26:31;9.80;1.00
13164;DHT22;6647;53.688;10.746;2022-09-30T07:27:52;9.80;1.00
13164;DHT22;6647;53.688;10.746;2022-09-30T07:29:14;9.90;1.00
13164;DHT22;6647;53.688;10.746;2022-09-30T07:30:36;9.90;1.00
13164;DHT22;6647;53.688;10.746;2022-09-30T07:32:01;9.90;1.00
13164;DHT22;6647;53.688;10.746;2022-09-30T07:33:22;9.90;1.00
13164;DHT22;6647;53.688;10.746;2022-09-30T07:34:43;9.90;1.00
13164;DHT22;6647;53.688;10.746;2022-09-30T07:36:04;9.90;1.00
13164;DHT22;6647;53.688;10.746;2022-09-30T07:37:28;10.00;1.00
13164;DHT22;6647;53.688;10.746;2022-09-30T07:38:49;10.00;1.00
13164;DHT22;6647;53.688;10.746;2022-09-30T07:40:11;10.00;1.00
13164;DHT22;6647;53.688;10.746;2022-09-30T07:41:34;10.10;1.00
13164;DHT22;6647;53.688;10.746;2022-09-30T07:42:56;10.10;1.00
13164;DHT22;6647;53.688;10.746;2022-09-30T07:44:17;10.20;1.00
13164;DHT22;6647;53.688;10.746;2022-09-30T07:45:38;10.20;1.20
13164;DHT22;6647;53.688;10.746;2022-09-30T07:46:59;10.20;4.80
13164;DHT22;6647;53.688;10.746;2022-09-30T07:48:21;10.30;10.10
13164;DHT22;6647;53.688;10.746;2022-09-30T07:50:03;10.30;13.20
13164;DHT22;6647;53.688;10.746;2022-09-30T07:51:26;10.40;18.20
13164;DHT22;6647;53.688;10.746;2022-09-30T07:52:52;10.40;22.20
13164;DHT22;6647;53.688;10.746;2022-09-30T07:54:15;10.50;29.70
13164;DHT22;6647;53.688;10.746;2022-09-30T07:55:37;10.50;32.70
13164;DHT22;6647;53.688;10.746;2022-09-30T07:57:01;10.60;33.40
13164;DHT22;6647;53.688;10.746;2022-09-30T07:58:22;10.60;35.00
13164;DHT22;6647;53.688;10.746;2022-09-30T07:59:43;10.70;31.50
13164;DHT22;6647;53.688;10.746;2022-09-30T08:01:04;10.70;28.70
13164;DHT22;6647;53.688;10.746;2022-09-30T08:02:28;10.80;27.60
13164;DHT22;6647;53.688;10.746;2022-09-30T08:03:53;10.80;27.50
13164;DHT22;6647;53.688;10.746;2022-09-30T08:05:14;10.80;28.50
13164;DHT22;6647;53.688;10.746;2022-09-30T08:06:44;10.90;27.40
13164;DHT22;6647;53.688;10.746;2022-09-30T08:08:05;10.90;24.20
13164;DHT22;6647;53.688;10.746;2022-09-30T08:09:27;11.00;22.80
13164;DHT22;6647;53.688;10.746;2022-09-30T08:10:49;11.00;20.30
13164;DHT22;6647;53.688;10.746;2022-09-30T08:12:10;11.10;17.70
13164;DHT22;6647;53.688;10.746;2022-09-30T08:13:31;11.10;14.60
13164;DHT22;6647;53.688;10.746;2022-09-30T08:14:52;11.10;14.60
13164;DHT22;6647;53.688;10.746;2022-09-30T08:16:13;11.20;13.10
13164;DHT22;6647;53.688;10.746;2022-09-30T08:17:34;11.20;10.30
13164;DHT22;6647;53.688;10.746;2022-09-30T08:18:59;11.30;9.70
13164;DHT22;6647;53.688;10.746;2022-09-30T08:20:21;11.30;6.90
13164;DHT22;6647;53.688;10.746;2022-09-30T08:21:42;11.30;5.40
13164;DHT22;6647;53.688;10.746;2022-09-30T08:23:03;11.30;3.10
13164;DHT22;6647;53.688;10.746;2022-09-30T08:24:25;11.40;2.40
13164;DHT22;6647;53.688;10.746;2022-09-30T08:25:46;11.40;1.70
13164;DHT22;6647;53.688;10.746;2022-09-30T08:27:07;11.50;1.20
13164;DHT22;6647;53.688;10.746;2022-09-30T08:28:28;11.50;1.00
13164;DHT22;6647;53.688;10.746;2022-09-30T08:29:51;11.50;1.00
13164;DHT22;6647;53.688;10.746;2022-09-30T08:31:18;11.60;1.00
13164;DHT22;6647;53.688;10.746;2022-09-30T08:32:39;11.60;1.00
13164;DHT22;6647;53.688;10.746;2022-09-30T08:34:00;11.70;1.00
13164;DHT22;6647;53.688;10.746;2022-09-30T08:35:22;11.70;1.00
13164;DHT22;6647;53.688;10.746;2022-09-30T08:36:43;11.70;1.00
13164;DHT22;6647;53.688;10.746;2022-09-30T08:38:06;11.70;1.00
13164;DHT22;6647;53.688;10.746;2022-09-30T08:39:27;11.80;1.00
13164;DHT22;6647;53.688;10.746;2022-09-30T08:41:15;11.80;1.00
13164;DHT22;6647;53.688;10.746;2022-09-30T08:44:17;11.80;1.00
13164;DHT22;6647;53.688;10.746;2022-09-30T08:46:27;11.80;1.00
13164;DHT22;6647;53.688;10.746;2022-09-30T08:52:21;11.90;1.00
13164;DHT22;6647;53.688;10.746;2022-09-30T08:53:45;12.00;1.00
13164;DHT22;6647;53.688;10.746;2022-09-30T08:55:12;12.00;1.00
13164;DHT22;6647;53.688;10.746;2022-09-30T08:56:36;12.00;1.00
13164;DHT22;6647;53.688;10.746;2022-09-30T08:57:57;12.10;1.00
13164;DHT22;6647;53.688;10.746;2022-09-30T08:59:42;12.10;1.00
13164;DHT22;6647;53.688;10.746;2022-09-30T09:01:19;12.20;1.00
13164;DHT22;6647;53.688;10.746;2022-09-30T09:02:45;12.10;1.00
13164;DHT22;6647;53.688;10.746;2022-09-30T09:04:09;12.20;1.00
13164;DHT22;6647;53.688;10.746;2022-09-30T09:07:21;12.20;1.00
13164;DHT22;6647;53.688;10.746;2022-09-30T09:18:32;12.60;1.00
13164;DHT22;6647;53.688;10.746;2022-09-30T09:20:16;12.70;1.00
13164;DHT22;6647;53.688;10.746;2022-09-30T09:21:47;12.70;1.00
13164;DHT22;6647;53.688;10.746;2022-09-30T09:23:11;12.80;1.00
13164;DHT22;6647;53.688;10.746;2022-09-30T09:24:47;12.80;1.00
13164;DHT22;6647;53.688;10.746;2022-09-30T09:26:12;12.90;1.00
13164;DHT22;6647;53.688;10.746;2022-09-30T09:27:50;12.90;1.00
13164;DHT22;6647;53.688;10.746;2022-09-30T09:29:40;13.00;1.00
13164;DHT22;6647;53.688;10.746;2022-09-30T09:31:03;13.10;1.00
13164;DHT22;6647;53.688;10.746;2022-09-30T09:32:25;13.20;1.00
13164;DHT22;6647;53.688;10.746;2022-09-30T09:33:47;13.20;1.00
13164;DHT22;6647;53.688;10.746;2022-09-30T09:35:16;13.20;1.00
13164;DHT22;6647;53.688;10.746;2022-09-30T09:42:30;13.40;1.00
13164;DHT22;6647;53.688;10.746;2022-09-30T09:47:31;13.60;1.00
13164;DHT22;6647;53.688;10.746;2022-09-30T09:55:00;13.70;1.00
13164;DHT22;6647;53.688;10.746;2022-09-30T09:56:22;13.70;1.00
13164;DHT22;6647;53.688;10.746;2022-09-30T09:57:46;13.70;1.00
13164;DHT22;6647;53.688;10.746;2022-09-30T09:59:16;13.80;1.00
13164;DHT22;6647;53.688;10.746;2022-09-30T10:00:37;13.80;1.00
13164;DHT22;6647;53.688;10.746;2022-09-30T10:02:29;13.80;1.00
13164;DHT22;6647;53.688;10.746;2022-09-30T10:04:06;13.90;1.00
13164;DHT22;6647;53.688;10.746;2022-09-30T10:05:31;13.90;1.00
13164;DHT22;6647;53.688;10.746;2022-09-30T10:07:01;13.90;1.00
13164;DHT22;6647;53.688;10.746;2022-09-30T10:08:37;14.00;1.00
13164;DHT22;6647;53.688;10.746;2022-09-30T10:11:29;14.10;1.00
13164;DHT22;6647;53.688;10.746;2022-09-30T10:12:50;14.10;1.00
13164;DHT22;6647;53.688;10.746;2022-09-30T10:14:16;14.10;1.00
13164;DHT22;6647;53.688;10.746;2022-09-30T10:15:41;14.20;1.00
13164;DHT22;6647;53.688;10.746;2022-09-30T10:17:04;14.20;1.00
13164;DHT22;6647;53.688;10.746;2022-09-30T10:18:34;14.20;1.00
13164;DHT22;6647;53.688;10.746;2022-09-30T10:20:16;14.20;1.00
13164;DHT22;6647;53.688;10.746;2022-09-30T10:21:38;14.20;1.00